NCAR-RAP Real-Time Weather Data

Output produced by METARs form (10 April 2020  07:18 UTC)
found at http://weather.rap.ucar.edu/surface/
 
KSBY 100654Z AUTO 28010G25KT 10SM CLR 09/M06 A2955 RMK AO2 PK WND 26026/0632 SLP010 T00891061